createdAt,value
2022-10-10T00:03:04.915Z,13.52
2022-10-10T00:15:27.220Z,13.74
2022-10-10T00:20:30.408Z,13.86
2022-10-10T00:25:33.136Z,13.22
2022-10-10T00:30:36.965Z,13.58
2022-10-10T00:35:39.840Z,13.77
2022-10-10T00:40:51.931Z,13.73
2022-10-10T00:45:54.895Z,13.63
2022-10-10T00:51:06.384Z,13.39
2022-10-10T01:02:51.275Z,13.43
2022-10-10T01:14:53.684Z,13.27
2022-10-10T01:40:04.899Z,12.94
2022-10-10T01:45:33.237Z,13.26
2022-10-10T01:57:22.426Z,13.11
2022-10-10T02:02:40.561Z,13.20
2022-10-10T02:07:54.313Z,13.29
2022-10-10T02:12:59.636Z,13.28
2022-10-10T02:18:03.927Z,12.98
2022-10-10T02:23:07.314Z,13.07
2022-10-10T02:28:21.770Z,13.20
2022-10-10T02:33:31.664Z,13.07
2022-10-10T02:38:34.733Z,12.81
2022-10-10T02:43:38.886Z,12.53
2022-10-10T02:48:41.824Z,12.93
2022-10-10T02:53:45.819Z,13.17
2022-10-10T02:58:48.595Z,12.85
2022-10-10T03:03:51.515Z,13.04
2022-10-10T03:08:54.343Z,13.03
2022-10-10T03:13:57.039Z,12.78
2022-10-10T03:18:59.733Z,12.91
2022-10-10T03:24:02.464Z,13.12
2022-10-10T03:29:06.010Z,13.05
2022-10-10T03:34:09.828Z,13.16
2022-10-10T03:39:12.851Z,13.04
2022-10-10T03:44:16.117Z,12.64
2022-10-10T03:49:18.969Z,13.03
2022-10-10T03:54:21.934Z,12.87
2022-10-10T03:59:24.792Z,12.84
2022-10-10T04:04:27.693Z,12.81
2022-10-10T04:09:31.285Z,12.91
2022-10-10T04:14:33.996Z,12.91
2022-10-10T04:19:36.791Z,13.14
2022-10-10T04:24:39.682Z,13.28
2022-10-10T04:29:42.353Z,13.24
2022-10-10T04:34:45.495Z,13.35
2022-10-10T04:39:48.571Z,13.51
2022-10-10T04:44:51.523Z,12.93
2022-10-10T04:49:54.353Z,13.19
2022-10-10T04:54:57.249Z,12.96
2022-10-10T05:00:00.624Z,13.27
2022-10-10T05:05:03.766Z,13.39
2022-10-10T05:10:08.040Z,13.17
2022-10-10T05:15:18.607Z,13.28
2022-10-10T05:20:22.394Z,13.44
2022-10-10T05:25:27.653Z,13.37
2022-10-10T05:30:30.588Z,13.33
2022-10-10T05:35:38.989Z,13.42
2022-10-10T05:40:42.600Z,13.36
2022-10-10T05:45:45.769Z,13.14
2022-10-10T05:50:55.678Z,13.28
2022-10-10T05:55:58.667Z,13.12
2022-10-10T06:01:07.032Z,13.56
2022-10-10T06:06:09.978Z,13.26
2022-10-10T06:11:13.172Z,13.29
2022-10-10T06:16:16.555Z,13.73
2022-10-10T06:21:20.898Z,13.78
2022-10-10T06:26:24.322Z,13.78
2022-10-10T06:31:27.851Z,13.71
2022-10-10T06:36:30.787Z,13.84
2022-10-10T06:41:33.555Z,13.96
2022-10-10T06:46:38.392Z,13.53
2022-10-10T06:51:42.201Z,13.90
2022-10-10T06:56:45.029Z,14.15
2022-10-10T07:01:48.071Z,14.21
2022-10-10T07:06:50.931Z,14.20
2022-10-10T07:11:53.837Z,14.39
2022-10-10T07:16:56.671Z,14.52
2022-10-10T07:21:59.845Z,14.54
2022-10-10T07:27:08.519Z,14.86
2022-10-10T07:32:11.729Z,14.98
2022-10-10T07:37:14.538Z,14.81
2022-10-10T07:42:17.466Z,15.04
2022-10-10T07:47:20.385Z,15.14
2022-10-10T07:52:23.532Z,14.97
2022-10-10T07:57:26.674Z,14.66
2022-10-10T08:02:29.565Z,15.31
2022-10-10T08:07:32.507Z,15.12
2022-10-10T08:12:35.355Z,15.53
2022-10-10T08:17:38.929Z,15.61
2022-10-10T08:22:41.833Z,15.80
2022-10-10T08:27:46.445Z,15.96
2022-10-10T08:32:51.738Z,15.74
2022-10-10T08:37:56.153Z,15.77
2022-10-10T08:43:05.658Z,15.96
2022-10-10T08:48:15.193Z,16.35
2022-10-10T08:53:44.003Z,16.80
2022-10-10T08:58:55.124Z,18.25
2022-10-10T09:04:02.113Z,18.77
2022-10-10T09:09:45.409Z,18.92
2022-10-10T09:15:10.777Z,19.31
2022-10-10T09:20:17.414Z,19.41
2022-10-10T09:25:43.259Z,19.18
2022-10-10T09:30:53.332Z,18.66
2022-10-10T09:35:59.775Z,18.43
2022-10-10T09:54:34.750Z,20.63
2022-10-10T09:59:45.807Z,21.70
2022-10-10T10:12:07.545Z,22.37
2022-10-10T10:17:16.176Z,22.10
2022-10-10T10:22:31.763Z,21.82
2022-10-10T10:34:49.355Z,21.00
2022-10-10T10:39:57.781Z,20.58
2022-10-10T10:45:28.697Z,20.52
2022-10-10T10:50:38.441Z,20.36
2022-10-10T11:22:48.185Z,21.29
2022-10-10T11:28:21.726Z,21.68
2022-10-10T11:40:02.140Z,21.27
2022-10-10T11:58:12.934Z,21.72
2022-10-10T12:03:16.003Z,21.74
2022-10-10T12:21:53.104Z,21.98
2022-10-10T12:26:56.136Z,21.87
2022-10-10T12:45:40.444Z,21.93
2022-10-10T12:50:43.676Z,22.00
2022-10-10T12:55:51.160Z,22.04
2022-10-10T13:00:56.002Z,21.74
2022-10-10T13:06:06.191Z,21.89
2022-10-10T13:11:33.885Z,21.94
2022-10-10T13:23:29.619Z,21.85
2022-10-10T13:28:33.087Z,22.04
2022-10-10T13:33:36.078Z,21.98
2022-10-10T13:38:39.396Z,21.32
2022-10-10T13:43:42.915Z,20.30
2022-10-10T13:48:46.053Z,20.70
2022-10-10T13:53:53.444Z,21.09
2022-10-10T13:59:03.055Z,21.09
2022-10-10T14:04:33.595Z,21.35
2022-10-10T14:09:42.508Z,21.54
2022-10-10T14:15:41.643Z,21.50
2022-10-10T14:20:46.457Z,21.13
2022-10-10T14:32:43.233Z,21.31
2022-10-10T14:37:46.010Z,21.25
2022-10-10T14:42:49.215Z,21.12
2022-10-10T14:47:53.004Z,20.61
2022-10-10T14:52:55.787Z,20.55
2022-10-10T14:57:58.763Z,20.84
2022-10-10T15:03:01.683Z,20.85
2022-10-10T15:08:05.126Z,21.24
2022-10-10T15:13:08.367Z,21.24
2022-10-10T15:18:47.544Z,20.93
2022-10-10T15:24:02.120Z,20.29
2022-10-10T15:29:05.150Z,19.83
2022-10-10T15:34:09.329Z,19.74
2022-10-10T15:39:12.613Z,19.08
2022-10-10T15:44:19.809Z,18.49
2022-10-10T15:49:22.828Z,18.49
2022-10-10T15:54:25.603Z,17.97
2022-10-10T15:59:28.451Z,17.74
2022-10-10T16:04:31.448Z,17.51
2022-10-10T16:09:34.473Z,16.78
2022-10-10T16:14:37.580Z,16.36
2022-10-10T16:19:40.626Z,15.98
2022-10-10T16:24:53.875Z,15.51
2022-10-10T16:30:31.123Z,15.05
2022-10-10T16:35:38.715Z,15.27
2022-10-10T16:47:40.154Z,14.49
2022-10-10T16:52:43.141Z,13.89
2022-10-10T16:57:46.026Z,13.70
2022-10-10T17:02:48.930Z,13.53
2022-10-10T17:07:52.344Z,13.36
2022-10-10T17:12:55.075Z,13.22
2022-10-10T17:17:57.869Z,13.15
2022-10-10T17:23:00.759Z,12.96
2022-10-10T17:28:03.673Z,13.10
2022-10-10T17:33:06.430Z,13.33
2022-10-10T17:38:35.044Z,13.45
2022-10-10T17:50:52.404Z,13.08
2022-10-10T17:55:55.352Z,13.03
2022-10-10T18:01:03.057Z,12.66
2022-10-10T18:06:07.797Z,12.98
2022-10-10T18:11:14.648Z,13.27
2022-10-10T18:16:20.290Z,13.22
2022-10-10T18:21:24.400Z,13.41
2022-10-10T18:26:32.994Z,12.93
2022-10-10T18:32:00.590Z,12.82
2022-10-10T18:37:03.561Z,13.10
2022-10-10T18:42:06.409Z,13.02
2022-10-10T18:47:09.386Z,13.04
2022-10-10T18:52:12.360Z,12.86
2022-10-10T18:57:15.386Z,12.57
2022-10-10T19:02:18.123Z,12.59
2022-10-10T19:07:20.964Z,12.41
2022-10-10T19:12:23.764Z,12.67
2022-10-10T19:17:26.535Z,12.67
2022-10-10T19:22:30.025Z,12.93
2022-10-10T19:27:32.813Z,12.89
2022-10-10T19:32:35.850Z,12.84
2022-10-10T19:37:42.569Z,12.94
2022-10-10T19:42:45.562Z,13.02
2022-10-10T19:47:49.577Z,13.32
2022-10-10T19:59:49.295Z,13.06
2022-10-10T20:04:53.103Z,13.10
2022-10-10T20:09:56.207Z,13.27
2022-10-10T20:15:00.868Z,13.48
2022-10-10T20:20:03.582Z,13.83
2022-10-10T20:25:07.696Z,13.36
2022-10-10T20:30:11.232Z,13.61
2022-10-10T20:35:15.582Z,13.57
2022-10-10T20:40:18.795Z,13.74
2022-10-10T20:45:22.188Z,13.93
2022-10-10T20:50:25.833Z,13.45
2022-10-10T21:02:29.602Z,13.31
2022-10-10T21:07:32.400Z,13.08
2022-10-10T21:12:36.301Z,13.33
2022-10-10T21:17:39.104Z,13.53
2022-10-10T21:22:41.883Z,13.52
2022-10-10T21:27:44.667Z,13.09
2022-10-10T21:32:47.388Z,13.02
2022-10-10T21:37:50.213Z,12.57
2022-10-10T21:42:53.219Z,12.26
2022-10-10T21:47:55.964Z,12.50
2022-10-10T21:52:58.992Z,12.67
2022-10-10T22:04:55.758Z,11.77
2022-10-10T22:09:59.484Z,11.21
2022-10-10T22:15:02.477Z,11.45
2022-10-10T22:20:07.323Z,11.58
2022-10-10T22:25:11.244Z,11.81
2022-10-10T22:30:14.905Z,11.70
2022-10-10T22:35:17.773Z,11.60
2022-10-10T22:40:23.100Z,11.79
2022-10-10T22:45:26.183Z,11.82
2022-10-10T22:50:29.585Z,11.15
2022-10-10T22:55:32.919Z,11.63
2022-10-10T23:07:35.088Z,11.48
2022-10-10T23:12:38.444Z,11.58
2022-10-10T23:17:41.137Z,11.73
2022-10-10T23:22:43.973Z,11.11
2022-10-10T23:27:47.369Z,11.37
2022-10-10T23:32:50.418Z,11.65
2022-10-10T23:37:53.160Z,11.49
2022-10-10T23:42:56.087Z,11.95
2022-10-10T23:47:58.924Z,11.99
2022-10-10T23:53:01.783Z,12.22
2022-10-10T23:58:05.115Z,12.53
